Terminal Aerodrome Forecast
Issued by NWS

Home | Current Version | Previous Version | Text Only | Print | Product List | Glossary Off
Versions: 1 2 3 4 5 6 7 8 9 10 11 12 13 14 15

000
FTUS43 KBIS 012000 AAA
TAFDIK
TAF AMD
KDIK 012055Z 0121/0218 29012KT P6SM -SHRA BKN060
      TEMPO 0121/0123 -TSRA BKN050CB
     FM020100 23009KT P6SM SCT080=

USA.gov is the U.S. government's official web portal to all federal, state and local government web resources and services.